createdAt,value
2023-02-25T00:01:44.483Z,7.47
2023-02-25T00:04:16.275Z,7.48
2023-02-25T00:06:43.135Z,7.49
2023-02-25T00:09:11.430Z,7.54
2023-02-25T00:11:38.688Z,7.62
2023-02-25T00:14:06.340Z,7.68
2023-02-25T00:16:33.295Z,7.72
2023-02-25T00:19:00.517Z,7.78
2023-02-25T00:21:29.638Z,7.83
2023-02-25T00:24:04.487Z,7.87
2023-02-25T00:26:41.353Z,7.87
2023-02-25T00:29:08.629Z,7.89
2023-02-25T00:31:35.638Z,7.92
2023-02-25T00:34:02.909Z,7.96
2023-02-25T00:36:29.813Z,7.96
2023-02-25T00:38:57.862Z,7.95
2023-02-25T00:41:27.862Z,7.91
2023-02-25T00:43:57.631Z,7.95
2023-02-25T00:46:26.175Z,7.98
2023-02-25T00:48:53.949Z,7.98
2023-02-25T00:51:25.597Z,7.98
2023-02-25T00:53:53.876Z,7.99
2023-02-25T00:56:21.256Z,7.96
2023-02-25T00:58:50.539Z,7.98
2023-02-25T01:01:28.514Z,8.00
2023-02-25T01:03:57.145Z,8.05
2023-02-25T01:06:26.159Z,8.07
2023-02-25T01:08:55.172Z,8.09
2023-02-25T01:11:29.268Z,7.99
2023-02-25T01:14:03.004Z,7.89
2023-02-25T01:16:32.322Z,7.85
2023-02-25T01:19:02.431Z,7.79
2023-02-25T01:21:32.575Z,7.76
2023-02-25T01:24:06.702Z,7.74
2023-02-25T01:26:36.384Z,7.74
2023-02-25T01:29:12.081Z,7.70
2023-02-25T01:31:39.833Z,7.61
2023-02-25T01:34:10.763Z,7.45
2023-02-25T01:36:37.986Z,7.33
2023-02-25T01:39:06.160Z,7.25
2023-02-25T01:41:36.132Z,7.17
2023-02-25T01:44:19.954Z,7.09
2023-02-25T01:46:52.446Z,6.98
2023-02-25T01:49:37.230Z,6.93
2023-02-25T01:52:18.813Z,6.92
2023-02-25T01:54:48.406Z,6.89
2023-02-25T01:57:17.400Z,6.86
2023-02-25T01:59:46.480Z,6.81
2023-02-25T02:02:17.106Z,6.80
2023-02-25T02:04:45.495Z,6.78
2023-02-25T02:07:13.241Z,6.78
2023-02-25T02:09:40.540Z,6.77
2023-02-25T02:12:07.867Z,6.75
2023-02-25T02:14:42.200Z,6.76
2023-02-25T02:17:38.924Z,6.75
2023-02-25T02:20:13.261Z,6.75
2023-02-25T02:22:42.929Z,6.75
2023-02-25T02:25:47.254Z,6.74
2023-02-25T02:28:20.148Z,6.71
2023-02-25T02:31:44.806Z,6.69
2023-02-25T02:34:41.680Z,6.65
2023-02-25T02:37:52.403Z,6.61
2023-02-25T02:40:49.206Z,6.60
2023-02-25T02:43:42.356Z,6.58
2023-02-25T02:46:32.468Z,6.56
2023-02-25T02:49:11.096Z,6.44
2023-02-25T02:51:51.259Z,6.36
2023-02-25T02:54:20.166Z,6.36
2023-02-25T02:56:51.778Z,6.35
2023-02-25T02:59:23.510Z,6.33
2023-02-25T03:01:56.806Z,6.33
2023-02-25T03:04:28.656Z,6.32
2023-02-25T03:07:01.615Z,6.30
2023-02-25T03:09:36.533Z,6.29
2023-02-25T03:12:03.515Z,6.29
2023-02-25T03:14:30.781Z,6.26
2023-02-25T03:17:20.051Z,6.20
2023-02-25T03:20:13.490Z,6.19
2023-02-25T03:22:45.562Z,6.20
2023-02-25T03:25:27.381Z,6.19
2023-02-25T03:27:57.185Z,6.19
2023-02-25T03:30:30.265Z,6.18
2023-02-25T03:33:26.352Z,6.20
2023-02-25T03:35:56.475Z,6.19
2023-02-25T03:38:29.187Z,6.19
2023-02-25T03:40:59.943Z,6.22
2023-02-25T03:43:35.340Z,6.17
2023-02-25T03:46:04.207Z,6.20
2023-02-25T03:48:32.273Z,6.20
2023-02-25T03:51:02.521Z,6.21
2023-02-25T03:53:32.814Z,6.24
2023-02-25T03:56:06.051Z,6.23
2023-02-25T03:58:34.807Z,6.26
2023-02-25T04:01:05.673Z,6.25
2023-02-25T04:03:32.555Z,6.25
2023-02-25T04:05:59.831Z,6.24
2023-02-25T04:08:26.786Z,6.24
2023-02-25T04:10:53.963Z,6.23
2023-02-25T04:13:21.417Z,6.25
2023-02-25T04:15:49.582Z,6.22
2023-02-25T04:18:16.933Z,6.20
2023-02-25T04:20:44.147Z,6.20
2023-02-25T04:23:15.024Z,6.19
2023-02-25T04:25:43.654Z,6.15
2023-02-25T04:28:11.462Z,6.15
2023-02-25T04:30:38.869Z,6.17
2023-02-25T04:33:05.887Z,6.14
2023-02-25T04:35:33.078Z,6.11
2023-02-25T04:37:59.971Z,6.15
2023-02-25T04:40:27.725Z,6.13
2023-02-25T04:42:54.656Z,6.11
2023-02-25T04:45:26.955Z,6.06
2023-02-25T04:47:55.807Z,6.03
2023-02-25T04:50:23.392Z,6.03
2023-02-25T04:52:50.305Z,6.06
2023-02-25T04:55:18.061Z,5.99
2023-02-25T04:57:45.048Z,5.99
2023-02-25T05:00:16.960Z,6.00
2023-02-25T05:02:43.850Z,5.99
2023-02-25T05:05:11.323Z,5.95
2023-02-25T05:07:39.097Z,5.86
2023-02-25T05:10:08.855Z,5.72
2023-02-25T05:12:36.200Z,5.59
2023-02-25T05:15:04.816Z,5.39
2023-02-25T05:17:32.899Z,5.20
2023-02-25T05:20:00.394Z,4.92
2023-02-25T05:22:28.230Z,4.77
2023-02-25T05:24:55.469Z,4.64
2023-02-25T05:27:22.421Z,4.55
2023-02-25T05:29:51.681Z,4.51
2023-02-25T05:32:18.659Z,4.42
2023-02-25T05:34:45.918Z,4.28
2023-02-25T05:37:12.941Z,4.20
2023-02-25T05:39:40.127Z,4.11
2023-02-25T05:42:07.085Z,4.04
2023-02-25T05:44:34.384Z,4.00
2023-02-25T05:47:01.373Z,3.98
2023-02-25T05:49:29.602Z,3.96
2023-02-25T05:51:56.648Z,3.96
2023-02-25T05:54:23.895Z,3.94
2023-02-25T05:56:52.464Z,3.96
2023-02-25T05:59:19.949Z,4.03
2023-02-25T06:01:47.312Z,4.02
2023-02-25T06:04:14.789Z,4.08
2023-02-25T06:06:42.037Z,4.10
2023-02-25T06:09:10.450Z,4.13
2023-02-25T06:11:37.643Z,4.16
2023-02-25T06:14:05.210Z,4.21
2023-02-25T06:16:32.767Z,4.24
2023-02-25T06:19:01.441Z,4.27
2023-02-25T06:21:28.649Z,4.28
2023-02-25T06:23:55.943Z,4.28
2023-02-25T06:26:23.602Z,4.28
2023-02-25T06:28:50.931Z,4.28
2023-02-25T06:31:20.025Z,4.26
2023-02-25T06:33:47.397Z,4.31
2023-02-25T06:36:15.741Z,4.34
2023-02-25T06:38:46.183Z,4.36
2023-02-25T06:41:15.744Z,4.41
2023-02-25T06:43:43.562Z,4.47
2023-02-25T06:46:13.718Z,4.50
2023-02-25T06:48:41.250Z,4.41
2023-02-25T06:51:09.742Z,4.33
2023-02-25T06:53:41.445Z,4.20
2023-02-25T06:56:09.675Z,4.00
2023-02-25T06:58:37.720Z,3.85
2023-02-25T07:01:14.193Z,3.73
2023-02-25T07:03:43.562Z,3.64
2023-02-25T07:06:11.251Z,3.50
2023-02-25T07:08:38.484Z,3.45
2023-02-25T07:11:29.227Z,3.36
2023-02-25T07:13:57.893Z,3.32
2023-02-25T07:16:25.507Z,3.27
2023-02-25T07:18:53.208Z,3.19
2023-02-25T07:21:20.278Z,3.12
2023-02-25T07:23:47.490Z,3.04
2023-02-25T07:26:15.612Z,2.97
2023-02-25T07:28:43.645Z,2.90
2023-02-25T07:31:17.300Z,2.84
2023-02-25T07:33:45.732Z,2.81
2023-02-25T07:36:13.272Z,2.78
2023-02-25T07:38:40.886Z,2.73
2023-02-25T07:41:10.427Z,2.61
2023-02-25T07:43:37.706Z,2.59
2023-02-25T07:46:04.853Z,2.56
2023-02-25T07:48:32.614Z,2.57
2023-02-25T07:51:17.274Z,2.56
2023-02-25T07:53:45.722Z,2.59
2023-02-25T07:56:13.012Z,2.61
2023-02-25T07:58:40.634Z,2.62
2023-02-25T08:01:09.517Z,2.73
2023-02-25T08:03:36.834Z,2.80
2023-02-25T08:06:08.164Z,2.87
2023-02-25T08:08:36.485Z,3.02
2023-02-25T08:11:11.600Z,3.13
2023-02-25T08:13:39.358Z,3.32
2023-02-25T08:16:10.987Z,3.37
2023-02-25T08:18:39.284Z,3.34
2023-02-25T08:21:06.348Z,3.35
2023-02-25T08:23:33.557Z,3.33
2023-02-25T08:26:01.134Z,3.35
2023-02-25T08:28:34.360Z,3.33
2023-02-25T08:31:03.622Z,3.31
2023-02-25T08:33:31.141Z,3.41
2023-02-25T08:36:13.114Z,3.45
2023-02-25T08:38:40.470Z,3.54
2023-02-25T08:41:08.368Z,3.57
2023-02-25T08:43:37.077Z,3.59
2023-02-25T08:46:04.813Z,3.57
2023-02-25T08:48:32.239Z,3.59
2023-02-25T08:51:09.281Z,3.57
2023-02-25T08:53:40.951Z,3.54
2023-02-25T08:56:10.597Z,3.49
2023-02-25T08:58:39.499Z,3.42
2023-02-25T09:01:09.254Z,3.45
2023-02-25T09:03:36.496Z,3.40
2023-02-25T09:06:03.597Z,3.36
2023-02-25T09:08:31.618Z,3.35
2023-02-25T09:10:58.464Z,3.41
2023-02-25T09:13:25.730Z,3.48
2023-02-25T09:15:59.116Z,3.48
2023-02-25T09:18:26.962Z,3.52
2023-02-25T09:20:53.956Z,3.56
2023-02-25T09:23:21.199Z,3.59
2023-02-25T09:25:48.212Z,3.68
2023-02-25T09:28:15.384Z,3.75
2023-02-25T09:30:46.252Z,3.80
2023-02-25T09:33:14.290Z,3.84
2023-02-25T09:35:42.116Z,3.95
2023-02-25T09:38:09.478Z,4.04
2023-02-25T09:40:37.032Z,4.14
2023-02-25T09:43:29.298Z,4.26
2023-02-25T09:46:11.114Z,4.35
2023-02-25T09:48:52.479Z,4.41
2023-02-25T09:51:27.015Z,4.50
2023-02-25T09:54:08.394Z,4.58
2023-02-25T09:56:36.220Z,4.67
2023-02-25T09:59:09.253Z,4.73
2023-02-25T10:01:42.321Z,4.87
2023-02-25T10:04:21.670Z,4.86
2023-02-25T10:06:50.996Z,4.85
2023-02-25T10:09:33.756Z,4.89
2023-02-25T10:12:14.058Z,4.96
2023-02-25T10:14:41.236Z,5.04
2023-02-25T10:17:30.001Z,5.05
2023-02-25T10:19:57.104Z,5.11
2023-02-25T10:22:42.284Z,5.15
2023-02-25T10:25:18.470Z,5.23
2023-02-25T10:27:53.012Z,5.20
2023-02-25T10:30:28.211Z,5.16
2023-02-25T10:32:56.203Z,5.05
2023-02-25T10:35:29.210Z,5.06
2023-02-25T10:37:56.225Z,5.04
2023-02-25T10:40:26.738Z,5.13
2023-02-25T10:43:10.264Z,5.25
2023-02-25T10:45:40.373Z,5.26
2023-02-25T10:48:23.434Z,5.28
2023-02-25T10:51:09.763Z,5.27
2023-02-25T10:53:36.744Z,5.20
2023-02-25T10:56:04.382Z,5.10
2023-02-25T10:58:40.814Z,5.10
2023-02-25T11:01:15.401Z,5.27
2023-02-25T11:03:59.033Z,5.40
2023-02-25T11:06:28.116Z,5.52
2023-02-25T11:08:58.684Z,5.60
2023-02-25T11:11:32.475Z,5.85
2023-02-25T11:14:14.559Z,6.07
2023-02-25T11:16:44.581Z,6.00
2023-02-25T11:19:25.711Z,5.87
2023-02-25T11:21:53.877Z,5.83
2023-02-25T11:24:38.607Z,5.89
2023-02-25T11:27:07.957Z,6.06
2023-02-25T11:29:39.051Z,6.23
2023-02-25T11:32:16.611Z,6.29
2023-02-25T11:34:51.324Z,6.18
2023-02-25T11:37:43.215Z,5.97
2023-02-25T11:40:30.292Z,5.83
2023-02-25T11:43:00.529Z,5.58
2023-02-25T11:45:31.202Z,4.90
2023-02-25T11:47:59.227Z,4.21
2023-02-25T11:50:37.645Z,3.68
2023-02-25T11:53:28.444Z,3.24
2023-02-25T11:56:34.031Z,2.97
2023-02-25T11:59:31.521Z,2.81
2023-02-25T12:02:43.098Z,2.56
2023-02-25T12:05:31.754Z,2.39
2023-02-25T12:08:33.138Z,2.27
2023-02-25T12:11:29.516Z,2.26
2023-02-25T12:14:08.589Z,2.17
2023-02-25T12:16:51.317Z,2.06
2023-02-25T12:19:37.262Z,2.01
2023-02-25T12:22:14.907Z,2.06
2023-02-25T12:25:03.710Z,2.08
2023-02-25T12:27:39.962Z,2.11
2023-02-25T12:30:21.766Z,2.09
2023-02-25T12:33:20.007Z,2.17
2023-02-25T12:36:15.679Z,2.33
2023-02-25T12:38:51.936Z,2.58
2023-02-25T12:41:38.647Z,2.89
2023-02-25T12:44:45.018Z,3.20
2023-02-25T12:47:14.655Z,3.73
2023-02-25T12:49:54.862Z,4.83
2023-02-25T12:52:55.030Z,6.15
2023-02-25T12:55:54.311Z,6.84
2023-02-25T12:58:33.984Z,6.77
2023-02-25T13:01:04.021Z,6.73
2023-02-25T13:03:42.030Z,6.80
2023-02-25T13:06:27.589Z,7.31
2023-02-25T13:09:17.733Z,7.53
2023-02-25T13:12:11.816Z,7.78
2023-02-25T13:14:58.207Z,8.52
2023-02-25T13:17:31.241Z,8.54
2023-02-25T13:20:23.012Z,8.59
2023-02-25T13:23:14.054Z,8.60
2023-02-25T13:25:40.876Z,8.69
2023-02-25T13:28:20.189Z,8.77
2023-02-25T13:30:47.276Z,8.89
2023-02-25T13:33:39.242Z,8.98
2023-02-25T13:36:19.723Z,9.10
2023-02-25T13:39:26.720Z,9.05
2023-02-25T13:42:04.489Z,9.10
2023-02-25T13:45:09.076Z,9.25
2023-02-25T13:47:43.860Z,9.40
2023-02-25T13:50:35.296Z,9.32
2023-02-25T13:53:26.485Z,9.53
2023-02-25T13:56:33.978Z,10.04
2023-02-25T13:59:22.512Z,10.02
2023-02-25T14:02:18.860Z,10.13
2023-02-25T14:05:14.478Z,10.12
2023-02-25T14:07:41.673Z,9.92
2023-02-25T14:10:14.274Z,9.81
2023-02-25T14:13:00.341Z,9.68
2023-02-25T14:15:42.259Z,9.29
2023-02-25T14:18:30.062Z,8.52
2023-02-25T14:21:15.161Z,8.05
2023-02-25T14:23:52.057Z,7.63
2023-02-25T14:27:02.200Z,7.32
2023-02-25T14:29:58.610Z,7.10
2023-02-25T14:32:47.421Z,6.43
2023-02-25T14:35:14.587Z,5.71
2023-02-25T14:37:47.544Z,4.71
2023-02-25T14:40:14.670Z,4.15
2023-02-25T14:42:50.990Z,3.58
2023-02-25T14:45:23.209Z,3.12
2023-02-25T14:48:25.360Z,2.72
2023-02-25T14:51:04.751Z,2.53
2023-02-25T14:53:41.432Z,2.47
2023-02-25T14:56:15.246Z,2.43
2023-02-25T14:59:14.632Z,2.40
2023-02-25T15:02:06.367Z,2.30
2023-02-25T15:05:00.245Z,2.16
2023-02-25T15:07:55.966Z,2.18
2023-02-25T15:10:53.966Z,2.24
2023-02-25T15:13:24.232Z,2.31
2023-02-25T15:16:09.840Z,2.41
2023-02-25T15:18:48.812Z,2.51
2023-02-25T15:21:40.346Z,2.61
2023-02-25T15:24:38.512Z,2.69
2023-02-25T15:27:36.628Z,2.75
2023-02-25T15:30:10.329Z,2.75
2023-02-25T15:33:11.384Z,2.71
2023-02-25T15:35:39.265Z,2.67
2023-02-25T15:38:08.536Z,2.61
2023-02-25T15:40:35.695Z,2.58
2023-02-25T15:43:26.476Z,2.55
2023-02-25T15:46:20.161Z,2.48
2023-02-25T15:49:04.939Z,2.42
2023-02-25T15:51:46.446Z,2.39
2023-02-25T15:54:28.827Z,2.38
2023-02-25T15:57:23.508Z,2.33
2023-02-25T15:59:55.611Z,2.28
2023-02-25T16:02:35.194Z,2.23
2023-02-25T16:05:24.831Z,2.20
2023-02-25T16:08:07.195Z,2.15
2023-02-25T16:10:48.180Z,2.15
2023-02-25T16:13:30.489Z,2.10
2023-02-25T16:15:58.489Z,2.08
2023-02-25T16:18:47.648Z,2.05
2023-02-25T16:21:27.003Z,2.05
2023-02-25T16:23:55.101Z,2.07
2023-02-25T16:26:25.025Z,2.05
2023-02-25T16:29:04.360Z,2.03
2023-02-25T16:32:04.015Z,2.01
2023-02-25T16:34:45.317Z,1.96
2023-02-25T16:37:42.374Z,1.99
2023-02-25T16:40:35.336Z,1.96
2023-02-25T16:43:02.667Z,1.99
2023-02-25T16:45:40.206Z,2.02
2023-02-25T16:48:14.569Z,2.09
2023-02-25T16:50:47.297Z,2.10
2023-02-25T16:53:26.722Z,2.16
2023-02-25T16:56:00.663Z,2.17
2023-02-25T16:58:30.572Z,2.22
2023-02-25T17:01:04.018Z,2.26
2023-02-25T17:03:42.888Z,2.29
2023-02-25T17:06:19.604Z,2.33
2023-02-25T17:08:49.960Z,2.34
2023-02-25T17:11:19.242Z,2.32
2023-02-25T17:13:50.173Z,2.32
2023-02-25T17:16:30.585Z,2.29
2023-02-25T17:19:05.235Z,2.27
2023-02-25T17:21:46.396Z,2.24
2023-02-25T17:24:17.854Z,2.25
2023-02-25T17:26:49.057Z,2.24
2023-02-25T17:29:17.917Z,2.22
2023-02-25T17:31:46.920Z,2.19
2023-02-25T17:34:17.875Z,2.17
2023-02-25T17:36:47.515Z,2.20
2023-02-25T17:39:20.307Z,2.17
2023-02-25T17:41:49.347Z,2.16
2023-02-25T17:44:39.007Z,2.11
2023-02-25T17:47:09.723Z,2.05
2023-02-25T17:49:38.106Z,2.00
2023-02-25T17:52:22.457Z,1.92
2023-02-25T17:54:57.265Z,1.91
2023-02-25T17:57:26.424Z,1.90
2023-02-25T18:00:00.529Z,1.90
2023-02-25T18:02:35.718Z,1.89
2023-02-25T18:05:08.689Z,1.91
2023-02-25T18:07:38.032Z,1.90
2023-02-25T18:10:05.555Z,1.86
2023-02-25T18:12:37.899Z,1.85
2023-02-25T18:15:31.065Z,1.79
2023-02-25T18:18:07.564Z,1.78
2023-02-25T18:20:39.099Z,1.75
2023-02-25T18:23:21.221Z,1.69
2023-02-25T18:26:09.445Z,1.67
2023-02-25T18:28:36.789Z,1.62
2023-02-25T18:31:03.840Z,1.55
2023-02-25T18:33:31.173Z,1.56
2023-02-25T18:35:59.409Z,1.56
2023-02-25T18:38:30.060Z,1.55
2023-02-25T18:40:57.719Z,1.58
2023-02-25T18:43:34.497Z,1.58
2023-02-25T18:46:02.072Z,1.60
2023-02-25T18:48:29.406Z,1.64
2023-02-25T18:50:58.586Z,1.61
2023-02-25T18:53:26.981Z,1.61
2023-02-25T18:55:56.172Z,1.57
2023-02-25T18:58:24.899Z,1.57
2023-02-25T19:00:56.578Z,1.54
2023-02-25T19:03:39.037Z,1.52
2023-02-25T19:06:06.660Z,1.51
2023-02-25T19:08:33.986Z,1.52
2023-02-25T19:11:01.291Z,1.53
2023-02-25T19:13:35.103Z,1.58
2023-02-25T19:16:02.799Z,1.61
2023-02-25T19:18:30.266Z,1.63
2023-02-25T19:20:57.345Z,1.68
2023-02-25T19:23:24.708Z,1.72
2023-02-25T19:25:58.310Z,1.74
2023-02-25T19:28:26.619Z,1.78
2023-02-25T19:30:53.604Z,1.83
2023-02-25T19:33:20.963Z,1.86
2023-02-25T19:35:48.167Z,1.91
2023-02-25T19:38:17.952Z,1.92
2023-02-25T19:40:46.514Z,1.94
2023-02-25T19:43:14.294Z,1.94
2023-02-25T19:45:42.055Z,1.92
2023-02-25T19:48:09.634Z,1.93
2023-02-25T19:50:40.851Z,1.92
2023-02-25T19:53:08.416Z,1.92
2023-02-25T19:55:35.406Z,1.93
2023-02-25T19:58:02.798Z,1.92
2023-02-25T20:00:29.850Z,1.86
2023-02-25T20:02:57.435Z,1.79
2023-02-25T20:05:25.052Z,1.73
2023-02-25T20:07:52.287Z,1.66
2023-02-25T20:10:19.755Z,1.59
2023-02-25T20:12:47.674Z,1.55
2023-02-25T20:15:15.869Z,1.51
2023-02-25T20:17:44.688Z,1.51
2023-02-25T20:20:12.965Z,1.48
2023-02-25T20:22:40.659Z,1.48
2023-02-25T20:25:08.749Z,1.47
2023-02-25T20:27:37.228Z,1.43
2023-02-25T20:30:06.889Z,1.45
2023-02-25T20:32:34.516Z,1.45
2023-02-25T20:35:02.113Z,1.40
2023-02-25T20:37:33.709Z,1.37
2023-02-25T20:40:00.965Z,1.35
2023-02-25T20:42:30.996Z,1.34
2023-02-25T20:44:58.904Z,1.35
2023-02-25T20:47:31.024Z,1.33
2023-02-25T20:49:58.721Z,1.33
2023-02-25T20:52:26.952Z,1.33
2023-02-25T20:54:54.039Z,1.35
2023-02-25T20:57:23.319Z,1.35
2023-02-25T20:59:50.925Z,1.37
2023-02-25T21:02:18.307Z,1.38
2023-02-25T21:04:46.024Z,1.37
2023-02-25T21:07:13.782Z,1.36
2023-02-25T21:09:40.902Z,1.28
2023-02-25T21:12:08.606Z,1.24
2023-02-25T21:14:35.767Z,1.21
2023-02-25T21:17:03.364Z,1.16
2023-02-25T21:19:30.406Z,1.15
2023-02-25T21:21:57.923Z,1.13
2023-02-25T21:24:27.303Z,1.18
2023-02-25T21:26:54.555Z,1.18
2023-02-25T21:29:21.490Z,1.23
2023-02-25T21:31:48.992Z,1.29
2023-02-25T21:34:16.036Z,1.29
2023-02-25T21:36:43.188Z,1.24
2023-02-25T21:39:11.542Z,1.22
2023-02-25T21:41:44.283Z,1.19
2023-02-25T21:44:12.436Z,1.17
2023-02-25T21:46:40.519Z,1.10
2023-02-25T21:49:07.599Z,1.09
2023-02-25T21:51:34.802Z,1.09
2023-02-25T21:54:02.157Z,1.05
2023-02-25T21:56:30.879Z,1.01
2023-02-25T21:59:01.270Z,0.89
2023-02-25T22:01:37.544Z,0.83
2023-02-25T22:04:05.713Z,0.81
2023-02-25T22:06:33.230Z,0.77
2023-02-25T22:09:01.308Z,0.79
2023-02-25T22:11:34.581Z,0.83
2023-02-25T22:14:03.063Z,0.85
2023-02-25T22:16:30.230Z,0.89
2023-02-25T22:18:57.591Z,0.92
2023-02-25T22:21:27.367Z,1.00
2023-02-25T22:23:56.913Z,1.06
2023-02-25T22:26:27.276Z,1.13
2023-02-25T22:29:04.838Z,1.22
2023-02-25T22:31:32.949Z,1.28
2023-02-25T22:34:00.940Z,1.28
2023-02-25T22:36:28.407Z,1.29
2023-02-25T22:38:56.581Z,1.32
2023-02-25T22:41:26.813Z,1.32
2023-02-25T22:43:54.726Z,1.34
2023-02-25T22:46:25.274Z,1.38
2023-02-25T22:48:53.439Z,1.42
2023-02-25T22:51:23.047Z,1.44
2023-02-25T22:53:50.637Z,1.46
2023-02-25T22:56:18.481Z,1.44
2023-02-25T22:58:45.687Z,1.44
2023-02-25T23:01:15.840Z,1.45
2023-02-25T23:03:44.009Z,1.49
2023-02-25T23:06:13.454Z,1.51
2023-02-25T23:08:40.349Z,1.52
2023-02-25T23:11:29.458Z,1.53
2023-02-25T23:13:59.360Z,1.52
2023-02-25T23:16:36.935Z,1.50
2023-02-25T23:19:05.836Z,1.44
2023-02-25T23:21:33.436Z,1.37
2023-02-25T23:24:02.007Z,1.38
2023-02-25T23:26:33.733Z,1.32
2023-02-25T23:29:02.610Z,1.33
2023-02-25T23:31:31.111Z,1.33
2023-02-25T23:34:00.588Z,1.32
2023-02-25T23:36:28.529Z,1.33
2023-02-25T23:39:00.381Z,1.39
2023-02-25T23:41:29.160Z,1.38
2023-02-25T23:43:58.733Z,1.40
2023-02-25T23:46:27.951Z,1.41
2023-02-25T23:48:59.636Z,1.42
2023-02-25T23:51:27.578Z,1.44
2023-02-25T23:53:59.433Z,1.42
2023-02-25T23:56:27.369Z,1.44
2023-02-25T23:58:55.349Z,1.44
